Time;durP1;ratioP1;P1;durP2;ratioP2;P2;SDS_P1;SDS_P2;PMS_P1;PMS_P2;Temp;Humidity;BMP_temperature;BMP_pressure;BME280_temperature;BME280_humidity;BME280_pressure;Samples;Min_cycle;Max_cycle;Signal;HPM_P1;HPM_P2
2022/11/09 00:02:23;;;;;;;3.73;2.60;;;;;;;;;;5025420;28;20186;-75
2022/11/09 00:04:50;;;;;;;4.07;2.67;;;;;;;;;;5032365;28;20231;-75
2022/11/09 00:07:16;;;;;;;6.23;4.23;;;;;;;;;;5020598;28;20204;-75
2022/11/09 00:09:42;;;;;;;3.60;2.87;;;;;;;;;;5022825;28;20202;-75
2022/11/09 00:12:08;;;;;;;12.03;2.80;;;;;;;;;;5026540;28;20244;-75
2022/11/09 00:14:35;;;;;;;4.73;2.23;;;;;;;;;;5024979;28;20233;-74
2022/11/09 00:17:01;;;;;;;2.83;2.53;;;;;;;;;;5025232;28;20186;-75
2022/11/09 00:19:27;;;;;;;3.20;2.67;;;;;;;;;;5022735;28;20178;-75
2022/11/09 00:21:53;;;;;;;3.27;2.57;;;;;;;;;;5036756;28;20200;-75
2022/11/09 00:24:20;;;;;;;5.67;3.10;;;;;;;;;;5019042;28;20219;-75
2022/11/09 00:26:46;;;;;;;3.97;3.20;;;;;;;;;;5017871;28;20593;-75
2022/11/09 00:29:12;;;;;;;5.30;3.13;;;;;;;;;;5032837;28;20180;-75
2022/11/09 00:31:38;;;;;;;7.63;4.23;;;;;;;;;;5023137;28;20182;-75
2022/11/09 00:34:06;;;;;;;8.27;4.60;;;;;;;;;;5028329;28;20182;-75
2022/11/09 00:36:33;;;;;;;6.13;4.00;;;;;;;;;;5019902;28;20946;-75
2022/11/09 00:39:00;;;;;;;5.73;4.10;;;;;;;;;;5019640;28;20191;-75
2022/11/09 00:41:27;;;;;;;6.70;3.70;;;;;;;;;;5011371;28;20206;-75
2022/11/09 00:43:54;;;;;;;6.87;3.70;;;;;;;;;;5040552;28;20725;-75
2022/11/09 00:46:21;;;;;;;9.37;5.97;;;;;;;;;;5026293;28;20214;-74
2022/11/09 00:48:49;;;;;;;6.53;4.17;;;;;;;;;;5014544;28;20217;-74
2022/11/09 00:51:17;;;;;;;7.80;4.70;;;;;;;;;;5026282;28;20182;-75
2022/11/09 00:53:47;;;;;;;8.37;5.07;;;;;;;;;;5034229;28;20195;-75
2022/11/09 00:56:13;;;;;;;13.10;6.63;;;;;;;;;;5018270;28;20202;-75
2022/11/09 00:58:40;;;;;;;6.97;4.80;;;;;;;;;;5023353;28;20197;-75
2022/11/09 01:01:10;;;;;;;13.97;7.30;;;;;;;;;;5025367;28;20240;-75
2022/11/09 01:03:36;;;;;;;5.70;4.40;;;;;;;;;;5037123;28;20194;-75
2022/11/09 01:06:03;;;;;;;4.97;3.73;;;;;;;;;;5024568;28;20898;-75
2022/11/09 01:08:29;;;;;;;5.67;4.07;;;;;;;;;;5021595;28;20269;-75
2022/11/09 01:10:55;;;;;;;5.87;3.93;;;;;;;;;;5030018;28;20174;-75
2022/11/09 01:13:22;;;;;;;5.73;3.57;;;;;;;;;;5024341;28;20194;-75
2022/11/09 01:15:53;;;;;;;6.83;4.80;;;;;;;;;;5020198;28;20639;-75
2022/11/09 01:18:20;;;;;;;4.90;3.50;;;;;;;;;;5027754;28;20198;-75
2022/11/09 01:20:48;;;;;;;5.13;4.20;;;;;;;;;;5025523;28;20265;-76
2022/11/09 01:23:15;;;;;;;8.87;5.30;;;;;;;;;;5033542;28;20708;-75
2022/11/09 01:25:41;;;;;;;5.50;3.90;;;;;;;;;;5021963;28;20218;-75
2022/11/09 01:28:09;;;;;;;6.37;3.90;;;;;;;;;;5030059;28;20228;-76
2022/11/09 01:30:36;;;;;;;6.90;4.20;;;;;;;;;;5030448;28;20190;-75
2022/11/09 01:33:06;;;;;;;7.80;4.80;;;;;;;;;;5007278;28;20188;-75
2022/11/09 01:35:37;;;;;;;5.90;4.43;;;;;;;;;;5036737;28;20218;-75
2022/11/09 01:38:04;;;;;;;8.30;5.30;;;;;;;;;;5038298;28;20174;-75
2022/11/09 01:40:31;;;;;;;7.57;5.60;;;;;;;;;;5027337;28;20205;-74
2022/11/09 01:43:05;;;;;;;12.33;8.07;;;;;;;;;;5030689;28;20206;-75
2022/11/09 01:45:31;;;;;;;10.63;6.83;;;;;;;;;;5032701;28;20206;-75
2022/11/09 01:47:59;;;;;;;8.03;5.40;;;;;;;;;;5026169;28;20180;-75
2022/11/09 01:50:28;;;;;;;8.20;5.40;;;;;;;;;;5019570;28;20674;-75
2022/11/09 01:52:54;;;;;;;6.07;4.87;;;;;;;;;;5023636;28;20182;-75
2022/11/09 01:55:22;;;;;;;6.90;5.20;;;;;;;;;;5026444;28;20226;-75
2022/11/09 01:58:00;;;;;;;8.47;5.60;;;;;;;;;;5027756;28;20198;-75
2022/11/09 02:00:27;;;;;;;8.50;4.80;;;;;;;;;;5037908;28;20190;-75
2022/11/09 02:02:58;;;;;;;6.87;4.80;;;;;;;;;;5027958;28;20262;-75
2022/11/09 02:05:27;;;;;;;6.47;4.43;;;;;;;;;;5042193;28;20673;-75
2022/11/09 02:07:55;;;;;;;5.67;4.20;;;;;;;;;;5033677;28;20186;-75
2022/11/09 02:10:27;;;;;;;10.33;6.97;;;;;;;;;;5007516;28;20233;-75
2022/11/09 02:12:55;;;;;;;8.53;5.30;;;;;;;;;;5026088;28;20186;-75
2022/11/09 02:15:22;;;;;;;8.47;5.10;;;;;;;;;;5025610;28;20214;-75
2022/11/09 02:17:49;;;;;;;11.00;6.27;;;;;;;;;;5031748;28;20199;-75
2022/11/09 02:20:17;;;;;;;6.43;4.60;;;;;;;;;;5013716;28;20714;-75
2022/11/09 02:22:43;;;;;;;6.23;4.67;;;;;;;;;;5026814;28;20266;-75
2022/11/09 02:25:09;;;;;;;6.97;5.10;;;;;;;;;;5021309;28;20258;-75
2022/11/09 02:27:37;;;;;;;5.93;4.20;;;;;;;;;;5031976;28;20184;-75
2022/11/09 02:30:04;;;;;;;6.10;4.03;;;;;;;;;;5025717;28;20179;-75
2022/11/09 02:32:31;;;;;;;10.90;5.97;;;;;;;;;;5040977;28;20186;-75
2022/11/09 02:34:58;;;;;;;6.93;5.07;;;;;;;;;;5019056;28;20893;-75
2022/11/09 02:37:26;;;;;;;12.97;8.43;;;;;;;;;;5021786;28;20179;-75
2022/11/09 02:39:54;;;;;;;12.63;7.40;;;;;;;;;;5028355;28;20171;-75
2022/11/09 02:42:21;;;;;;;7.70;6.00;;;;;;;;;;5043742;28;20205;-75
2022/11/09 02:44:48;;;;;;;7.57;5.33;;;;;;;;;;5027060;28;20205;-75
2022/11/09 02:47:15;;;;;;;8.90;5.53;;;;;;;;;;5021884;28;20182;-75
2022/11/09 02:49:42;;;;;;;8.60;6.20;;;;;;;;;;5018384;28;20189;-75
2022/11/09 02:52:08;;;;;;;12.73;7.50;;;;;;;;;;5027395;28;20209;-75
2022/11/09 02:54:35;;;;;;;10.50;7.13;;;;;;;;;;5027527;28;20215;-75
2022/11/09 02:57:01;;;;;;;9.33;6.40;;;;;;;;;;5022481;28;20280;-75
2022/11/09 02:59:28;;;;;;;8.33;6.00;;;;;;;;;;5010986;28;20170;-75
2022/11/09 03:01:54;;;;;;;10.63;6.60;;;;;;;;;;5030779;28;20219;-75
2022/11/09 03:04:21;;;;;;;8.77;5.37;;;;;;;;;;5023291;28;20205;-75
2022/11/09 03:06:47;;;;;;;9.57;6.40;;;;;;;;;;5008666;28;20227;-75
2022/11/09 03:09:16;;;;;;;10.67;6.50;;;;;;;;;;5028226;28;20750;-75
2022/11/09 03:11:43;;;;;;;7.77;5.27;;;;;;;;;;5021712;28;20316;-75
2022/11/09 03:14:11;;;;;;;7.33;5.13;;;;;;;;;;5027647;28;20186;-75
2022/11/09 03:16:41;;;;;;;7.10;4.93;;;;;;;;;;5024582;28;20245;-76
2022/11/09 03:19:08;;;;;;;8.40;5.50;;;;;;;;;;5025343;28;20188;-75
2022/11/09 03:21:34;;;;;;;6.20;4.57;;;;;;;;;;5030704;28;20182;-75
2022/11/09 03:24:00;;;;;;;10.97;6.80;;;;;;;;;;5026097;28;20273;-75
2022/11/09 03:26:27;;;;;;;9.47;5.93;;;;;;;;;;5039683;28;20221;-75
2022/11/09 03:28:53;;;;;;;9.40;6.00;;;;;;;;;;5023572;28;20187;-75
2022/11/09 03:31:20;;;;;;;9.17;6.43;;;;;;;;;;5023882;28;20191;-75
2022/11/09 03:33:48;;;;;;;10.10;6.20;;;;;;;;;;5026394;28;20201;-75
2022/11/09 03:36:14;;;;;;;7.43;4.67;;;;;;;;;;5028164;28;20281;-74
2022/11/09 03:38:41;;;;;;;4.67;3.73;;;;;;;;;;5029518;28;20264;-75
2022/11/09 03:41:07;;;;;;;6.07;3.87;;;;;;;;;;5041837;28;20182;-75
2022/11/09 03:43:35;;;;;;;4.83;2.83;;;;;;;;;;5023068;28;20803;-75
2022/11/09 03:46:01;;;;;;;3.73;3.00;;;;;;;;;;5025346;28;20208;-75
2022/11/09 03:48:27;;;;;;;3.97;2.70;;;;;;;;;;5023212;28;20646;-75
2022/11/09 03:50:53;;;;;;;2.90;2.53;;;;;;;;;;5022279;28;20197;-75
2022/11/09 03:53:19;;;;;;;3.10;2.53;;;;;;;;;;5019695;28;20683;-75
2022/11/09 03:55:45;;;;;;;2.63;2.20;;;;;;;;;;5021486;28;20229;-75
2022/11/09 03:58:12;;;;;;;3.03;2.20;;;;;;;;;;5030666;28;20646;-75
2022/11/09 04:00:38;;;;;;;3.10;2.40;;;;;;;;;;5017324;28;20199;-75
2022/11/09 04:03:04;;;;;;;3.80;2.73;;;;;;;;;;5023612;28;20289;-75
2022/11/09 04:05:31;;;;;;;4.30;2.77;;;;;;;;;;5022121;28;20202;-75
2022/11/09 04:07:57;;;;;;;3.10;2.63;;;;;;;;;;5023977;28;20178;-75
2022/11/09 04:10:24;;;;;;;3.80;2.90;;;;;;;;;;5021337;28;20190;-75
2022/11/09 04:12:50;;;;;;;4.93;3.07;;;;;;;;;;5023557;28;20187;-75
2022/11/09 04:15:16;;;;;;;4.63;3.40;;;;;;;;;;5015886;28;20226;-75
2022/11/09 04:17:46;;;;;;;5.97;3.70;;;;;;;;;;5019856;28;20202;-75
2022/11/09 04:20:12;;;;;;;5.40;3.60;;;;;;;;;;5020959;28;20818;-75
2022/11/09 04:22:38;;;;;;;6.20;4.13;;;;;;;;;;5018512;28;20186;-75
2022/11/09 04:25:05;;;;;;;6.10;4.33;;;;;;;;;;5018672;28;20207;-75
2022/11/09 04:27:31;;;;;;;5.43;4.10;;;;;;;;;;5022164;28;20193;-74
2022/11/09 04:29:57;;;;;;;4.37;3.83;;;;;;;;;;5015353;28;20244;-75
2022/11/09 04:32:24;;;;;;;6.10;4.07;;;;;;;;;;5023426;28;20190;-75
2022/11/09 04:34:50;;;;;;;5.73;4.10;;;;;;;;;;5013109;28;20705;-75
2022/11/09 04:37:16;;;;;;;5.77;4.43;;;;;;;;;;5022703;28;20191;-75
2022/11/09 04:39:42;;;;;;;8.50;5.70;;;;;;;;;;5011064;28;20190;-75
2022/11/09 04:42:08;;;;;;;6.77;4.40;;;;;;;;;;5024104;28;20249;-75
2022/11/09 04:44:34;;;;;;;4.80;4.33;;;;;;;;;;5012989;28;20301;-75
2022/11/09 04:47:00;;;;;;;7.13;5.10;;;;;;;;;;5022260;28;21016;-74
2022/11/09 04:49:27;;;;;;;6.30;4.90;;;;;;;;;;5027314;28;20368;-75
2022/11/09 04:51:53;;;;;;;6.80;4.90;;;;;;;;;;5022743;28;20210;-75
2022/11/09 04:54:19;;;;;;;7.53;5.80;;;;;;;;;;5018514;28;20762;-75
2022/11/09 04:56:45;;;;;;;5.90;5.30;;;;;;;;;;5018096;28;20187;-75
2022/11/09 04:59:11;;;;;;;5.90;5.20;;;;;;;;;;5016120;28;20825;-75
2022/11/09 05:01:37;;;;;;;8.33;5.87;;;;;;;;;;5011324;28;20241;-75
2022/11/09 05:04:04;;;;;;;6.77;5.60;;;;;;;;;;5028317;28;20198;-75
2022/11/09 05:06:33;;;;;;;6.30;5.50;;;;;;;;;;5029096;28;20436;-75
2022/11/09 05:09:04;;;;;;;5.63;5.00;;;;;;;;;;5020961;28;20185;-74
2022/11/09 05:11:30;;;;;;;7.67;5.20;;;;;;;;;;5024963;28;20182;-75
2022/11/09 05:13:57;;;;;;;5.53;4.57;;;;;;;;;;5028410;28;20606;-75
2022/11/09 05:16:23;;;;;;;5.43;4.60;;;;;;;;;;5029765;28;20202;-74
2022/11/09 05:18:49;;;;;;;7.00;4.70;;;;;;;;;;5031092;28;20257;-75
2022/11/09 05:21:16;;;;;;;4.80;3.93;;;;;;;;;;5030689;28;20184;-75
2022/11/09 05:23:57;;;;;;;7.30;4.20;;;;;;;;;;5022701;28;20293;-75
2022/11/09 05:26:24;;;;;;;4.90;3.70;;;;;;;;;;5025455;28;20284;-76
2022/11/09 05:28:51;;;;;;;5.00;4.50;;;;;;;;;;5030023;28;20881;-75
2022/11/09 05:31:18;;;;;;;4.47;4.07;;;;;;;;;;5034733;28;20579;-75
2022/11/09 05:33:44;;;;;;;5.00;4.33;;;;;;;;;;5030280;28;20190;-75
2022/11/09 05:36:10;;;;;;;5.20;4.60;;;;;;;;;;5019232;28;20694;-75
2022/11/09 05:38:36;;;;;;;4.47;3.73;;;;;;;;;;5017953;28;20191;-75
2022/11/09 05:41:02;;;;;;;4.83;4.07;;;;;;;;;;5017695;28;20783;-75
2022/11/09 05:43:28;;;;;;;4.60;3.73;;;;;;;;;;5025984;28;20233;-75
2022/11/09 05:45:55;;;;;;;5.50;3.93;;;;;;;;;;5021843;28;20206;-74
2022/11/09 05:48:21;;;;;;;5.00;3.77;;;;;;;;;;5024074;28;21962;-74
2022/11/09 05:50:47;;;;;;;5.70;3.80;;;;;;;;;;5022437;28;20197;-74
2022/11/09 05:53:21;;;;;;;4.53;3.33;;;;;;;;;;5024666;28;20202;-74
2022/11/09 05:55:47;;;;;;;4.00;3.60;;;;;;;;;;5034954;28;20210;-75
2022/11/09 05:58:13;;;;;;;5.07;3.07;;;;;;;;;;5022685;28;20179;-75
2022/11/09 06:00:40;;;;;;;4.77;3.73;;;;;;;;;;5019000;28;20217;-75
2022/11/09 06:03:09;;;;;;;5.73;3.57;;;;;;;;;;5027375;28;20193;-75
2022/11/09 06:05:36;;;;;;;4.07;3.23;;;;;;;;;;5029325;28;20278;-75
2022/11/09 06:08:06;;;;;;;3.47;3.10;;;;;;;;;;5027747;28;20293;-75
2022/11/09 06:10:32;;;;;;;3.60;2.90;;;;;;;;;;5024199;28;20174;-75
2022/11/09 06:12:58;;;;;;;3.97;3.50;;;;;;;;;;5018501;28;20183;-75
2022/11/09 06:15:25;;;;;;;5.17;3.17;;;;;;;;;;5019820;28;20203;-77
2022/11/09 06:17:52;;;;;;;3.67;3.37;;;;;;;;;;5024151;28;20633;-76
2022/11/09 06:20:18;;;;;;;3.40;3.10;;;;;;;;;;5023645;28;20224;-74
2022/11/09 06:22:44;;;;;;;6.53;3.20;;;;;;;;;;5027318;28;20216;-76
2022/11/09 06:25:10;;;;;;;6.20;5.50;;;;;;;;;;5026381;28;20263;-73
2022/11/09 06:27:36;;;;;;;3.93;3.50;;;;;;;;;;5025358;28;20565;-78
2022/11/09 06:30:02;;;;;;;3.40;3.10;;;;;;;;;;5022505;28;20186;-78
2022/11/09 06:32:29;;;;;;;4.07;3.00;;;;;;;;;;5032796;28;20278;-76
2022/11/09 06:34:55;;;;;;;3.47;2.90;;;;;;;;;;5026245;28;20204;-76
2022/11/09 06:37:21;;;;;;;3.30;3.00;;;;;;;;;;5029940;28;20565;-75
2022/11/09 06:39:47;;;;;;;4.70;2.70;;;;;;;;;;5025533;28;20183;-75
2022/11/09 06:42:13;;;;;;;3.30;2.70;;;;;;;;;;5022960;28;20175;-76
2022/11/09 06:44:40;;;;;;;3.37;2.60;;;;;;;;;;5024564;28;20214;-76
2022/11/09 06:47:06;;;;;;;3.57;2.80;;;;;;;;;;5026069;28;20182;-76
2022/11/09 06:49:32;;;;;;;4.67;2.40;;;;;;;;;;5028288;28;20183;-77
2022/11/09 06:51:58;;;;;;;2.63;2.00;;;;;;;;;;5031607;28;20179;-75
2022/11/09 06:54:27;;;;;;;2.13;1.93;;;;;;;;;;5029161;28;20180;-75
2022/11/09 06:56:54;;;;;;;4.37;2.40;;;;;;;;;;5026857;28;20654;-76
2022/11/09 06:59:21;;;;;;;2.23;2.00;;;;;;;;;;5023135;28;20195;-76
2022/11/09 07:01:49;;;;;;;2.00;1.80;;;;;;;;;;5024538;28;20264;-77
2022/11/09 07:04:15;;;;;;;1.90;1.73;;;;;;;;;;5035329;28;20206;-77
2022/11/09 07:06:42;;;;;;;3.03;2.27;;;;;;;;;;5025095;28;20832;-78
2022/11/09 07:09:09;;;;;;;2.77;2.00;;;;;;;;;;5023630;28;20193;-77
2022/11/09 07:11:36;;;;;;;2.70;2.00;;;;;;;;;;5031740;28;20174;-77
2022/11/09 07:14:02;;;;;;;1.73;1.63;;;;;;;;;;5023022;28;20564;-78
2022/11/09 07:16:38;;;;;;;1.83;1.67;;;;;;;;;;5022594;28;20565;-77
2022/11/09 07:19:04;;;;;;;3.13;1.70;;;;;;;;;;5020457;28;20201;-77
2022/11/09 07:21:30;;;;;;;2.47;1.30;;;;;;;;;;5028138;28;20508;-77
2022/11/09 07:23:56;;;;;;;1.60;1.37;;;;;;;;;;5020065;28;20202;-77
2022/11/09 07:26:22;;;;;;;1.63;1.00;;;;;;;;;;5015647;28;20607;-77
2022/11/09 07:28:48;;;;;;;2.40;1.23;;;;;;;;;;5018993;28;20256;-77
2022/11/09 07:31:14;;;;;;;2.33;1.10;;;;;;;;;;5017932;28;20177;-77
2022/11/09 07:33:40;;;;;;;1.23;1.10;;;;;;;;;;5024079;28;20288;-77
2022/11/09 07:36:07;;;;;;;1.73;1.20;;;;;;;;;;5019302;28;20199;-78
2022/11/09 07:38:33;;;;;;;1.60;1.10;;;;;;;;;;5019701;28;20236;-77
2022/11/09 07:41:00;;;;;;;1.00;0.90;;;;;;;;;;5022368;28;20551;-77
2022/11/09 07:43:26;;;;;;;1.37;0.90;;;;;;;;;;5024584;28;20210;-77
2022/11/09 07:45:54;;;;;;;0.80;0.80;;;;;;;;;;5018428;28;20682;-77
2022/11/09 07:48:21;;;;;;;0.97;0.80;;;;;;;;;;5027149;28;20183;-77
2022/11/09 07:50:47;;;;;;;0.90;0.80;;;;;;;;;;5022524;28;20237;-77
2022/11/09 07:53:14;;;;;;;1.07;0.80;;;;;;;;;;5030355;28;20171;-77
2022/11/09 07:55:41;;;;;;;1.00;0.70;;;;;;;;;;5026629;28;20210;-77
2022/11/09 07:58:08;;;;;;;0.80;0.80;;;;;;;;;;5026009;28;20228;-77
2022/11/09 08:00:35;;;;;;;1.17;0.83;;;;;;;;;;5027703;28;20296;-77
2022/11/09 08:03:02;;;;;;;0.93;0.80;;;;;;;;;;5025627;28;20188;-77
2022/11/09 08:05:29;;;;;;;1.80;1.07;;;;;;;;;;5026064;28;20213;-77
2022/11/09 08:07:56;;;;;;;1.27;0.90;;;;;;;;;;5024528;28;20182;-77
2022/11/09 08:10:22;;;;;;;1.90;1.00;;;;;;;;;;5040649;28;20228;-77
2022/11/09 08:12:58;;;;;;;1.30;1.00;;;;;;;;;;5024742;28;20198;-77
2022/11/09 08:15:24;;;;;;;1.20;1.10;;;;;;;;;;5014456;28;20205;-77
2022/11/09 08:17:51;;;;;;;1.57;1.00;;;;;;;;;;5025110;28;20213;-77
2022/11/09 08:20:18;;;;;;;1.20;1.10;;;;;;;;;;5026947;28;20182;-77
2022/11/09 08:22:44;;;;;;;2.00;1.10;;;;;;;;;;5018171;28;20187;-77
2022/11/09 08:25:11;;;;;;;1.53;1.10;;;;;;;;;;5028069;28;20214;-77
2022/11/09 08:27:39;;;;;;;1.17;1.00;;;;;;;;;;5025988;28;20205;-77
2022/11/09 08:30:12;;;;;;;1.43;1.00;;;;;;;;;;5024901;28;20179;-77
2022/11/09 08:32:39;;;;;;;1.00;1.00;;;;;;;;;;5022624;28;20270;-77
2022/11/09 08:35:05;;;;;;;1.83;1.13;;;;;;;;;;5019604;28;20290;-77
2022/11/09 08:37:33;;;;;;;1.43;1.03;;;;;;;;;;5022552;28;20194;-77
2022/11/09 08:40:00;;;;;;;2.00;1.47;;;;;;;;;;5020303;28;20184;-77
2022/11/09 08:42:26;;;;;;;1.73;1.10;;;;;;;;;;5022662;28;20187;-77
2022/11/09 08:44:53;;;;;;;1.80;1.10;;;;;;;;;;5028721;28;20318;-77
2022/11/09 08:47:19;;;;;;;1.30;1.20;;;;;;;;;;5024954;28;20191;-77
2022/11/09 08:49:46;;;;;;;1.20;1.10;;;;;;;;;;5007611;28;20265;-77
2022/11/09 08:52:12;;;;;;;1.30;1.17;;;;;;;;;;5026934;28;20191;-77
2022/11/09 08:54:39;;;;;;;2.27;1.20;;;;;;;;;;5026466;28;20202;-77
2022/11/09 08:57:05;;;;;;;1.23;1.13;;;;;;;;;;5017717;28;20756;-77
2022/11/09 08:59:31;;;;;;;1.57;1.20;;;;;;;;;;5026076;28;20189;-77
2022/11/09 09:01:57;;;;;;;1.83;1.00;;;;;;;;;;5032369;28;20631;-77
2022/11/09 09:04:24;;;;;;;1.33;1.10;;;;;;;;;;5025956;28;20575;-77
2022/11/09 09:06:50;;;;;;;1.43;1.10;;;;;;;;;;5020300;28;20192;-77
2022/11/09 09:09:16;;;;;;;2.33;1.40;;;;;;;;;;5028844;28;20662;-77
2022/11/09 09:11:42;;;;;;;2.80;1.30;;;;;;;;;;5022654;28;20296;-77
2022/11/09 09:14:08;;;;;;;1.83;1.27;;;;;;;;;;5033145;28;20278;-77
2022/11/09 09:16:35;;;;;;;4.07;1.40;;;;;;;;;;5017582;28;20772;-77
2022/11/09 09:19:01;;;;;;;1.57;1.40;;;;;;;;;;5026035;28;20203;-77
2022/11/09 09:21:27;;;;;;;2.10;1.40;;;;;;;;;;5023964;28;20275;-75
2022/11/09 09:23:54;;;;;;;2.87;1.60;;;;;;;;;;5021564;28;20214;-75
2022/11/09 09:26:20;;;;;;;3.60;1.40;;;;;;;;;;5015623;28;20695;-75
2022/11/09 09:28:46;;;;;;;3.27;1.30;;;;;;;;;;5016924;28;20265;-75
2022/11/09 09:31:12;;;;;;;1.70;1.37;;;;;;;;;;5021754;28;20809;-75
2022/11/09 09:33:39;;;;;;;2.33;1.40;;;;;;;;;;5023204;28;20626;-75
2022/11/09 09:36:05;;;;;;;2.17;1.73;;;;;;;;;;5018929;28;20214;-75
2022/11/09 09:38:31;;;;;;;3.10;1.60;;;;;;;;;;5026378;28;20201;-75
2022/11/09 09:41:02;;;;;;;2.30;1.40;;;;;;;;;;5021844;28;20187;-75
2022/11/09 09:43:32;;;;;;;1.53;1.40;;;;;;;;;;5023192;28;20211;-75
2022/11/09 09:45:59;;;;;;;2.43;1.67;;;;;;;;;;5024257;28;20204;-75
2022/11/09 09:48:33;;;;;;;2.43;1.43;;;;;;;;;;5025976;28;20229;-75
2022/11/09 09:51:02;;;;;;;1.60;1.50;;;;;;;;;;5030315;28;20191;-75
2022/11/09 09:53:28;;;;;;;3.23;1.50;;;;;;;;;;5030651;28;20209;-76
2022/11/09 09:55:56;;;;;;;2.63;1.60;;;;;;;;;;5029176;28;20210;-76
2022/11/09 09:58:25;;;;;;;1.50;1.40;;;;;;;;;;5024438;28;20196;-76
2022/11/09 10:00:56;;;;;;;2.27;1.43;;;;;;;;;;5030366;28;20198;-76
2022/11/09 10:03:22;;;;;;;1.50;1.40;;;;;;;;;;5030595;28;20220;-76
2022/11/09 10:06:07;;;;;;;1.60;1.50;;;;;;;;;;5044957;28;20896;-75
2022/11/09 10:08:33;;;;;;;3.23;1.40;;;;;;;;;;5029905;28;20180;-76
2022/11/09 10:11:05;;;;;;;1.97;1.30;;;;;;;;;;5030037;28;20194;-76
2022/11/09 10:13:38;;;;;;;2.10;1.60;;;;;;;;;;5029360;28;20201;-76
2022/11/09 10:16:17;;;;;;;1.70;1.50;;;;;;;;;;5017043;28;20281;-76
2022/11/09 10:18:50;;;;;;;1.60;1.40;;;;;;;;;;5019867;28;20183;-76
2022/11/09 10:21:27;;;;;;;3.27;1.50;;;;;;;;;;5030118;28;20187;-76
2022/11/09 10:24:06;;;;;;;2.20;1.50;;;;;;;;;;5030351;28;20194;-76
2022/11/09 10:26:35;;;;;;;2.17;1.37;;;;;;;;;;5028973;28;20217;-75
2022/11/09 10:29:06;;;;;;;1.73;1.50;;;;;;;;;;5023233;28;20175;-76
2022/11/09 10:31:33;;;;;;;2.20;1.53;;;;;;;;;;5020043;28;20186;-76
2022/11/09 10:34:02;;;;;;;2.07;1.57;;;;;;;;;;5027556;28;20182;-76
2022/11/09 10:36:33;;;;;;;2.30;1.50;;;;;;;;;;5023546;28;20198;-76
2022/11/09 10:39:00;;;;;;;2.37;1.50;;;;;;;;;;5029300;28;20175;-76
2022/11/09 10:41:45;;;;;;;1.67;1.57;;;;;;;;;;5020552;28;20190;-76
2022/11/09 10:44:30;;;;;;;2.90;1.53;;;;;;;;;;5023979;28;20688;-76
2022/11/09 10:47:16;;;;;;;2.77;1.60;;;;;;;;;;5034434;28;20212;-75
2022/11/09 10:50:13;;;;;;;2.87;1.93;;;;;;;;;;5027352;28;20182;-75
2022/11/09 10:53:09;;;;;;;1.63;1.50;;;;;;;;;;5027513;28;20187;-77
2022/11/09 10:56:00;;;;;;;3.90;1.60;;;;;;;;;;5028934;28;20277;-83
2022/11/09 10:58:47;;;;;;;2.17;1.60;;;;;;;;;;5031359;28;20270;-79
2022/11/09 11:01:37;;;;;;;3.67;1.67;;;;;;;;;;5029730;28;20270;-78
2022/11/09 11:04:23;;;;;;;2.80;1.90;;;;;;;;;;5043752;28;20234;-78
2022/11/09 11:07:15;;;;;;;3.20;1.60;;;;;;;;;;5027806;28;20213;-79
2022/11/09 11:10:10;;;;;;;2.13;1.70;;;;;;;;;;5031098;28;20186;-79
2022/11/09 11:13:01;;;;;;;1.60;1.50;;;;;;;;;;5030285;28;20237;-79
2022/11/09 11:15:46;;;;;;;3.83;1.70;;;;;;;;;;5028959;28;20643;-79
2022/11/09 11:18:33;;;;;;;2.53;1.70;;;;;;;;;;5030603;28;20357;-79
2022/11/09 11:21:20;;;;;;;2.00;1.80;;;;;;;;;;5030511;28;20250;-80
2022/11/09 11:24:20;;;;;;;1.93;1.70;;;;;;;;;;5031116;28;20260;-79
2022/11/09 11:27:10;;;;;;;2.70;1.77;;;;;;;;;;5028960;28;20197;-79
2022/11/09 11:29:57;;;;;;;3.20;1.77;;;;;;;;;;5034084;28;20269;-79
2022/11/09 11:32:42;;;;;;;2.47;1.70;;;;;;;;;;5029079;28;20291;-79
2022/11/09 11:35:27;;;;;;;2.07;1.67;;;;;;;;;;5032451;28;20233;-79
2022/11/09 11:38:12;;;;;;;3.80;1.73;;;;;;;;;;5033697;28;20205;-79
2022/11/09 11:41:12;;;;;;;3.10;1.67;;;;;;;;;;5049444;28;20191;-79
2022/11/09 11:43:59;;;;;;;2.83;1.73;;;;;;;;;;5037277;28;20209;-78
2022/11/09 11:46:44;;;;;;;3.17;1.60;;;;;;;;;;5028328;28;20175;-79
2022/11/09 11:49:32;;;;;;;3.87;1.80;;;;;;;;;;5048985;28;20211;-79
2022/11/09 11:52:35;;;;;;;2.17;1.60;;;;;;;;;;5035076;28;20596;-78
2022/11/09 11:55:29;;;;;;;2.03;1.70;;;;;;;;;;5038579;28;20880;-79
2022/11/09 11:58:27;;;;;;;2.27;1.70;;;;;;;;;;5038058;28;20187;-79
2022/11/09 12:01:19;;;;;;;4.60;1.87;;;;;;;;;;5052968;28;20183;-79
2022/11/09 12:04:07;;;;;;;2.90;1.80;;;;;;;;;;5036171;28;20197;-79
2022/11/09 12:06:57;;;;;;;3.60;1.70;;;;;;;;;;5023207;28;20453;-78
2022/11/09 12:09:42;;;;;;;3.53;1.90;;;;;;;;;;5032582;28;20523;-78
2022/11/09 12:12:33;;;;;;;2.57;1.70;;;;;;;;;;5037916;28;20263;-78
2022/11/09 12:15:21;;;;;;;2.80;1.57;;;;;;;;;;5038111;28;20748;-79
2022/11/09 12:18:15;;;;;;;2.90;2.00;;;;;;;;;;5037434;28;20193;-79
2022/11/09 12:21:09;;;;;;;3.13;1.63;;;;;;;;;;5025438;28;20203;-79
2022/11/09 12:23:56;;;;;;;2.70;1.90;;;;;;;;;;5021977;28;20218;-79
2022/11/09 12:26:58;;;;;;;2.97;1.80;;;;;;;;;;5034377;28;20198;-79
2022/11/09 12:30:00;;;;;;;2.00;1.60;;;;;;;;;;5036714;28;20208;-78
2022/11/09 12:32:50;;;;;;;3.87;1.80;;;;;;;;;;5031993;28;20679;-79
2022/11/09 12:35:40;;;;;;;3.50;1.90;;;;;;;;;;5036136;28;20667;-79
2022/11/09 12:38:25;;;;;;;4.00;2.23;;;;;;;;;;5030965;28;20630;-79
2022/11/09 12:41:16;;;;;;;4.33;2.20;;;;;;;;;;5031649;28;20183;-79
2022/11/09 12:44:10;;;;;;;4.20;1.90;;;;;;;;;;5031719;28;20214;-79
2022/11/09 12:46:58;;;;;;;2.17;1.60;;;;;;;;;;5025059;28;20564;-78
2022/11/09 12:49:44;;;;;;;3.07;1.80;;;;;;;;;;5026961;28;20703;-79
2022/11/09 12:52:29;;;;;;;3.00;1.80;;;;;;;;;;5050434;28;20232;-76
2022/11/09 12:55:16;;;;;;;4.57;1.90;;;;;;;;;;5029068;28;20202;-80
2022/11/09 12:58:00;;;;;;;3.13;1.90;;;;;;;;;;5034428;28;20448;-79
2022/11/09 13:00:47;;;;;;;2.90;1.87;;;;;;;;;;5027024;28;20210;-79
2022/11/09 13:03:34;;;;;;;3.30;1.80;;;;;;;;;;5022040;28;20201;-79
2022/11/09 13:06:22;;;;;;;3.43;1.80;;;;;;;;;;5023524;28;20234;-80
2022/11/09 13:09:27;;;;;;;2.53;1.60;;;;;;;;;;5044268;28;20178;-80
2022/11/09 13:12:26;;;;;;;3.00;1.87;;;;;;;;;;5034470;28;20216;-80
2022/11/09 13:15:22;;;;;;;3.00;1.67;;;;;;;;;;5035068;28;20221;-79
2022/11/09 13:18:23;;;;;;;3.00;1.77;;;;;;;;;;5037492;28;20186;-80
2022/11/09 13:21:23;;;;;;;3.40;1.70;;;;;;;;;;5028638;28;20351;-80
2022/11/09 13:24:26;;;;;;;3.47;1.80;;;;;;;;;;5034899;28;20225;-77
2022/11/09 13:27:32;;;;;;;2.63;1.80;;;;;;;;;;5030251;28;20186;-79
2022/11/09 13:30:32;;;;;;;2.20;1.70;;;;;;;;;;5029942;28;20775;-77
2022/11/09 13:33:17;;;;;;;1.97;1.53;;;;;;;;;;5025149;28;20286;-79
2022/11/09 13:36:08;;;;;;;2.77;1.80;;;;;;;;;;5034409;28;20229;-79
2022/11/09 13:39:11;;;;;;;3.97;1.80;;;;;;;;;;5026325;28;20191;-79
2022/11/09 13:41:56;;;;;;;2.47;1.90;;;;;;;;;;5036524;28;20192;-79
2022/11/09 13:44:41;;;;;;;3.43;1.60;;;;;;;;;;5025809;28;20212;-79
2022/11/09 13:47:30;;;;;;;3.87;1.60;;;;;;;;;;5022782;28;20182;-78
2022/11/09 13:50:25;;;;;;;2.00;1.70;;;;;;;;;;5035122;28;20279;-78
2022/11/09 13:53:42;;;;;;;3.07;1.60;;;;;;;;;;5027666;28;20252;-76
2022/11/09 13:56:36;;;;;;;3.53;1.87;;;;;;;;;;5001729;28;20596;-77
2022/11/09 13:59:34;;;;;;;4.27;1.70;;;;;;;;;;5027691;28;20281;-78
2022/11/09 14:02:23;;;;;;;4.47;2.00;;;;;;;;;;5022044;28;20550;-78
2022/11/09 14:05:26;;;;;;;4.13;1.70;;;;;;;;;;5024866;28;20214;-77
2022/11/09 14:08:18;;;;;;;3.77;2.07;;;;;;;;;;5029411;28;20277;-78
2022/11/09 14:11:21;;;;;;;3.60;2.00;;;;;;;;;;5027657;28;20182;-78
2022/11/09 14:14:17;;;;;;;3.20;1.93;;;;;;;;;;5023607;28;20175;-79
2022/11/09 14:17:17;;;;;;;3.93;2.20;;;;;;;;;;5027735;28;20260;-74
2022/11/09 14:20:18;;;;;;;4.37;2.10;;;;;;;;;;5014329;28;20264;-79
2022/11/09 14:23:03;;;;;;;2.13;1.50;;;;;;;;;;5017613;28;20199;-79
2022/11/09 14:25:48;;;;;;;2.13;1.90;;;;;;;;;;5033259;28;20217;-78
2022/11/09 14:28:35;;;;;;;4.13;1.80;;;;;;;;;;5029321;28;20182;-78
2022/11/09 14:31:27;;;;;;;2.50;1.80;;;;;;;;;;5034072;28;20187;-79
2022/11/09 14:34:14;;;;;;;3.87;2.17;;;;;;;;;;5034185;28;20266;-79
2022/11/09 14:36:58;;;;;;;6.03;2.13;;;;;;;;;;5033237;28;20834;-79
2022/11/09 14:39:48;;;;;;;4.10;2.00;;;;;;;;;;5030404;28;20179;-79
2022/11/09 14:42:33;;;;;;;2.40;1.73;;;;;;;;;;5020118;28;20843;-79
2022/11/09 14:45:18;;;;;;;3.23;2.03;;;;;;;;;;5035719;28;20214;-78
2022/11/09 14:48:03;;;;;;;6.87;2.30;;;;;;;;;;5035349;28;20175;-79
2022/11/09 14:50:48;;;;;;;4.10;2.07;;;;;;;;;;5034143;28;20277;-78
2022/11/09 14:53:35;;;;;;;4.33;2.20;;;;;;;;;;5034969;28;20715;-79
2022/11/09 14:56:21;;;;;;;4.37;2.07;;;;;;;;;;5033982;28;20202;-79
2022/11/09 14:59:15;;;;;;;2.13;1.83;;;;;;;;;;5028952;28;20278;-79
2022/11/09 15:02:10;;;;;;;4.80;2.10;;;;;;;;;;5031816;28;20203;-78
2022/11/09 15:04:57;;;;;;;3.90;2.07;;;;;;;;;;5027219;28;20273;-79
2022/11/09 15:07:44;;;;;;;5.83;2.30;;;;;;;;;;5014127;28;20927;-78
2022/11/09 15:10:31;;;;;;;4.13;2.07;;;;;;;;;;5035691;28;20178;-78
2022/11/09 15:13:16;;;;;;;4.63;2.60;;;;;;;;;;5032676;28;20190;-78
2022/11/09 15:16:01;;;;;;;5.43;2.40;;;;;;;;;;5032969;28;20214;-78
2022/11/09 15:18:46;;;;;;;3.07;2.17;;;;;;;;;;5033257;28;20555;-79
2022/11/09 15:21:36;;;;;;;3.67;2.00;;;;;;;;;;5032536;28;20595;-79
2022/11/09 15:24:23;;;;;;;4.60;2.40;;;;;;;;;;5013954;28;20201;-78